sensor_id;sensor_type;location;lat;lon;timestamp;temperature;humidity
81202;DHT22;71068;47.662;-2.750;2023-07-30T00:00:36;18.40;78.50
81202;DHT22;71068;47.662;-2.750;2023-07-30T00:03:05;18.20;78.90
81202;DHT22;71068;47.662;-2.750;2023-07-30T00:05:31;18.30;78.50
81202;DHT22;71068;47.662;-2.750;2023-07-30T00:07:58;18.30;78.90
81202;DHT22;71068;47.662;-2.750;2023-07-30T00:10:24;18.30;78.80
81202;DHT22;71068;47.662;-2.750;2023-07-30T00:12:51;18.40;78.50
81202;DHT22;71068;47.662;-2.750;2023-07-30T00:15:18;18.40;78.30
81202;DHT22;71068;47.662;-2.750;2023-07-30T00:17:46;18.40;78.50
81202;DHT22;71068;47.662;-2.750;2023-07-30T00:20:14;18.40;78.20
81202;DHT22;71068;47.662;-2.750;2023-07-30T00:22:41;18.50;78.20
81202;DHT22;71068;47.662;-2.750;2023-07-30T00:25:09;18.50;78.00
81202;DHT22;71068;47.662;-2.750;2023-07-30T00:27:36;18.40;78.20
81202;DHT22;71068;47.662;-2.750;2023-07-30T00:30:11;18.40;78.10
81202;DHT22;71068;47.662;-2.750;2023-07-30T00:32:37;18.50;77.90
81202;DHT22;71068;47.662;-2.750;2023-07-30T00:35:06;18.40;78.00
81202;DHT22;71068;47.662;-2.750;2023-07-30T00:37:34;18.50;78.10
81202;DHT22;71068;47.662;-2.750;2023-07-30T00:40:00;18.40;77.90
81202;DHT22;71068;47.662;-2.750;2023-07-30T00:42:27;18.40;78.00
81202;DHT22;71068;47.662;-2.750;2023-07-30T00:44:53;18.40;77.90
81202;DHT22;71068;47.662;-2.750;2023-07-30T00:47:19;18.50;77.90
81202;DHT22;71068;47.662;-2.750;2023-07-30T00:49:45;18.50;78.20
81202;DHT22;71068;47.662;-2.750;2023-07-30T00:52:17;18.50;78.10
81202;DHT22;71068;47.662;-2.750;2023-07-30T00:54:47;18.50;77.90
81202;DHT22;71068;47.662;-2.750;2023-07-30T00:57:15;18.50;78.00
81202;DHT22;71068;47.662;-2.750;2023-07-30T00:59:43;18.50;77.90
81202;DHT22;71068;47.662;-2.750;2023-07-30T01:02:09;18.50;77.90
81202;DHT22;71068;47.662;-2.750;2023-07-30T01:04:36;18.40;78.00
81202;DHT22;71068;47.662;-2.750;2023-07-30T01:07:06;18.50;78.00
81202;DHT22;71068;47.662;-2.750;2023-07-30T01:09:33;18.40;78.20
81202;DHT22;71068;47.662;-2.750;2023-07-30T01:12:00;18.40;78.20
81202;DHT22;71068;47.662;-2.750;2023-07-30T01:14:28;18.50;78.10
81202;DHT22;71068;47.662;-2.750;2023-07-30T01:16:56;18.50;78.20
81202;DHT22;71068;47.662;-2.750;2023-07-30T01:19:22;18.50;78.20
81202;DHT22;71068;47.662;-2.750;2023-07-30T01:21:52;18.30;78.20
81202;DHT22;71068;47.662;-2.750;2023-07-30T01:24:18;18.40;78.10
81202;DHT22;71068;47.662;-2.750;2023-07-30T01:26:53;18.40;78.30
81202;DHT22;71068;47.662;-2.750;2023-07-30T01:29:42;18.40;78.20
81202;DHT22;71068;47.662;-2.750;2023-07-30T01:32:15;18.40;78.50
81202;DHT22;71068;47.662;-2.750;2023-07-30T01:34:44;18.40;78.30
81202;DHT22;71068;47.662;-2.750;2023-07-30T01:37:12;18.40;78.60
81202;DHT22;71068;47.662;-2.750;2023-07-30T01:39:41;18.40;78.80
81202;DHT22;71068;47.662;-2.750;2023-07-30T01:42:14;18.40;78.70
81202;DHT22;71068;47.662;-2.750;2023-07-30T01:44:41;18.50;78.40
81202;DHT22;71068;47.662;-2.750;2023-07-30T01:47:08;18.50;78.20
81202;DHT22;71068;47.662;-2.750;2023-07-30T01:49:33;18.50;78.70
81202;DHT22;71068;47.662;-2.750;2023-07-30T01:52:00;18.50;78.70
81202;DHT22;71068;47.662;-2.750;2023-07-30T01:54:26;18.50;78.60
81202;DHT22;71068;47.662;-2.750;2023-07-30T01:56:52;18.50;78.40
81202;DHT22;71068;47.662;-2.750;2023-07-30T01:59:20;18.50;78.40
81202;DHT22;71068;47.662;-2.750;2023-07-30T02:01:46;18.50;78.50
81202;DHT22;71068;47.662;-2.750;2023-07-30T02:04:12;18.60;78.50
81202;DHT22;71068;47.662;-2.750;2023-07-30T02:06:39;18.60;78.40
81202;DHT22;71068;47.662;-2.750;2023-07-30T02:09:05;18.60;78.30
81202;DHT22;71068;47.662;-2.750;2023-07-30T02:11:31;18.70;78.00
81202;DHT22;71068;47.662;-2.750;2023-07-30T02:13:57;18.70;78.00
81202;DHT22;71068;47.662;-2.750;2023-07-30T02:16:23;18.70;78.30
81202;DHT22;71068;47.662;-2.750;2023-07-30T02:18:51;18.70;78.10
81202;DHT22;71068;47.662;-2.750;2023-07-30T02:21:18;18.60;78.10
81202;DHT22;71068;47.662;-2.750;2023-07-30T02:23:43;18.70;78.00
81202;DHT22;71068;47.662;-2.750;2023-07-30T02:26:10;18.70;77.90
81202;DHT22;71068;47.662;-2.750;2023-07-30T02:28:36;18.80;77.80
81202;DHT22;71068;47.662;-2.750;2023-07-30T02:31:02;18.70;77.60
81202;DHT22;71068;47.662;-2.750;2023-07-30T02:33:28;18.80;77.90
81202;DHT22;71068;47.662;-2.750;2023-07-30T02:35:55;18.80;77.70
81202;DHT22;71068;47.662;-2.750;2023-07-30T02:38:21;18.70;77.60
81202;DHT22;71068;47.662;-2.750;2023-07-30T02:40:47;18.70;77.90
81202;DHT22;71068;47.662;-2.750;2023-07-30T02:43:15;18.60;78.30
81202;DHT22;71068;47.662;-2.750;2023-07-30T02:45:40;18.60;78.00
81202;DHT22;71068;47.662;-2.750;2023-07-30T02:48:06;18.60;78.00
81202;DHT22;71068;47.662;-2.750;2023-07-30T02:50:33;18.50;78.10
81202;DHT22;71068;47.662;-2.750;2023-07-30T02:52:59;18.50;78.20
81202;DHT22;71068;47.662;-2.750;2023-07-30T02:55:25;18.50;78.20
81202;DHT22;71068;47.662;-2.750;2023-07-30T02:57:51;18.50;78.20
81202;DHT22;71068;47.662;-2.750;2023-07-30T03:00:17;18.50;78.30
81202;DHT22;71068;47.662;-2.750;2023-07-30T03:02:43;18.40;78.50
81202;DHT22;71068;47.662;-2.750;2023-07-30T03:05:09;18.40;78.30
81202;DHT22;71068;47.662;-2.750;2023-07-30T03:07:36;18.40;78.50
81202;DHT22;71068;47.662;-2.750;2023-07-30T03:10:02;18.50;78.40
81202;DHT22;71068;47.662;-2.750;2023-07-30T03:12:30;18.40;78.80
81202;DHT22;71068;47.662;-2.750;2023-07-30T03:14:56;18.40;78.40
81202;DHT22;71068;47.662;-2.750;2023-07-30T03:17:23;18.50;78.50
81202;DHT22;71068;47.662;-2.750;2023-07-30T03:19:53;18.50;78.50
81202;DHT22;71068;47.662;-2.750;2023-07-30T03:22:19;18.50;78.20
81202;DHT22;71068;47.662;-2.750;2023-07-30T03:24:49;18.50;78.30
81202;DHT22;71068;47.662;-2.750;2023-07-30T03:27:15;18.50;78.10
81202;DHT22;71068;47.662;-2.750;2023-07-30T03:29:44;18.60;78.10
81202;DHT22;71068;47.662;-2.750;2023-07-30T03:32:12;18.60;78.10
81202;DHT22;71068;47.662;-2.750;2023-07-30T03:34:40;18.60;78.00
81202;DHT22;71068;47.662;-2.750;2023-07-30T03:37:10;18.60;78.30
81202;DHT22;71068;47.662;-2.750;2023-07-30T03:39:36;18.60;78.10
81202;DHT22;71068;47.662;-2.750;2023-07-30T03:42:03;18.70;78.10
81202;DHT22;71068;47.662;-2.750;2023-07-30T03:48:41;18.70;78.30
81202;DHT22;71068;47.662;-2.750;2023-07-30T03:51:07;18.70;78.20
81202;DHT22;71068;47.662;-2.750;2023-07-30T03:53:33;18.70;78.10
81202;DHT22;71068;47.662;-2.750;2023-07-30T03:55:59;18.70;78.10
81202;DHT22;71068;47.662;-2.750;2023-07-30T03:58:26;18.70;78.20
81202;DHT22;71068;47.662;-2.750;2023-07-30T04:00:52;18.70;78.10
81202;DHT22;71068;47.662;-2.750;2023-07-30T04:03:18;18.70;78.00
81202;DHT22;71068;47.662;-2.750;2023-07-30T04:05:44;18.70;78.10
81202;DHT22;71068;47.662;-2.750;2023-07-30T04:08:10;18.70;78.10
81202;DHT22;71068;47.662;-2.750;2023-07-30T04:10:36;18.70;78.20
81202;DHT22;71068;47.662;-2.750;2023-07-30T04:13:01;18.70;78.30
81202;DHT22;71068;47.662;-2.750;2023-07-30T04:15:27;18.80;78.10
81202;DHT22;71068;47.662;-2.750;2023-07-30T04:17:54;18.80;78.10
81202;DHT22;71068;47.662;-2.750;2023-07-30T04:20:20;18.80;77.70
81202;DHT22;71068;47.662;-2.750;2023-07-30T04:22:46;18.80;77.80
81202;DHT22;71068;47.662;-2.750;2023-07-30T04:25:14;18.80;78.40
81202;DHT22;71068;47.662;-2.750;2023-07-30T04:27:40;18.70;78.50
81202;DHT22;71068;47.662;-2.750;2023-07-30T04:30:08;18.90;78.20
81202;DHT22;71068;47.662;-2.750;2023-07-30T04:32:34;19.00;77.80
81202;DHT22;71068;47.662;-2.750;2023-07-30T04:35:02;19.00;77.30
81202;DHT22;71068;47.662;-2.750;2023-07-30T04:37:29;19.00;77.40
81202;DHT22;71068;47.662;-2.750;2023-07-30T04:39:57;19.00;77.10
81202;DHT22;71068;47.662;-2.750;2023-07-30T04:42:23;19.00;77.00
81202;DHT22;71068;47.662;-2.750;2023-07-30T04:44:56;19.00;76.90
81202;DHT22;71068;47.662;-2.750;2023-07-30T04:47:24;18.90;77.00
81202;DHT22;71068;47.662;-2.750;2023-07-30T04:49:50;18.70;77.90
81202;DHT22;71068;47.662;-2.750;2023-07-30T04:52:16;18.80;77.50
81202;DHT22;71068;47.662;-2.750;2023-07-30T04:54:44;18.80;77.50
81202;DHT22;71068;47.662;-2.750;2023-07-30T04:57:12;18.80;77.60
81202;DHT22;71068;47.662;-2.750;2023-07-30T04:59:38;18.80;77.60
81202;DHT22;71068;47.662;-2.750;2023-07-30T05:02:05;18.80;77.60
81202;DHT22;71068;47.662;-2.750;2023-07-30T05:04:31;18.80;77.30
81202;DHT22;71068;47.662;-2.750;2023-07-30T05:06:57;18.80;77.30
81202;DHT22;71068;47.662;-2.750;2023-07-30T05:09:23;18.70;77.30
81202;DHT22;71068;47.662;-2.750;2023-07-30T05:11:51;18.80;77.30
81202;DHT22;71068;47.662;-2.750;2023-07-30T05:14:19;18.90;77.10
81202;DHT22;71068;47.662;-2.750;2023-07-30T05:16:45;18.90;77.10
81202;DHT22;71068;47.662;-2.750;2023-07-30T05:19:13;18.90;77.10
81202;DHT22;71068;47.662;-2.750;2023-07-30T05:21:39;18.90;77.20
81202;DHT22;71068;47.662;-2.750;2023-07-30T05:24:05;18.80;77.20
81202;DHT22;71068;47.662;-2.750;2023-07-30T05:26:31;18.90;77.10
81202;DHT22;71068;47.662;-2.750;2023-07-30T05:28:58;18.80;77.30
81202;DHT22;71068;47.662;-2.750;2023-07-30T05:31:24;18.90;77.40
81202;DHT22;71068;47.662;-2.750;2023-07-30T05:33:51;18.90;77.20
81202;DHT22;71068;47.662;-2.750;2023-07-30T05:36:16;18.90;77.30
81202;DHT22;71068;47.662;-2.750;2023-07-30T05:38:42;19.00;77.30
81202;DHT22;71068;47.662;-2.750;2023-07-30T05:41:09;18.90;77.30
81202;DHT22;71068;47.662;-2.750;2023-07-30T05:43:35;18.90;77.30
81202;DHT22;71068;47.662;-2.750;2023-07-30T05:46:02;18.90;77.50
81202;DHT22;71068;47.662;-2.750;2023-07-30T05:48:28;18.90;77.40
81202;DHT22;71068;47.662;-2.750;2023-07-30T05:50:55;18.90;77.30
81202;DHT22;71068;47.662;-2.750;2023-07-30T05:53:22;18.90;77.60
81202;DHT22;71068;47.662;-2.750;2023-07-30T05:55:49;18.90;77.50
81202;DHT22;71068;47.662;-2.750;2023-07-30T05:58:15;18.90;77.60
81202;DHT22;71068;47.662;-2.750;2023-07-30T06:00:41;18.90;77.70
81202;DHT22;71068;47.662;-2.750;2023-07-30T06:03:07;18.90;77.70
81202;DHT22;71068;47.662;-2.750;2023-07-30T06:05:39;18.90;77.70
81202;DHT22;71068;47.662;-2.750;2023-07-30T06:08:07;19.00;77.40
81202;DHT22;71068;47.662;-2.750;2023-07-30T06:10:36;19.00;77.20
81202;DHT22;71068;47.662;-2.750;2023-07-30T06:13:04;19.00;77.40
81202;DHT22;71068;47.662;-2.750;2023-07-30T06:15:33;18.90;77.60
81202;DHT22;71068;47.662;-2.750;2023-07-30T06:18:01;18.90;77.30
81202;DHT22;71068;47.662;-2.750;2023-07-30T06:20:28;19.00;77.20
81202;DHT22;71068;47.662;-2.750;2023-07-30T06:22:57;19.00;77.30
81202;DHT22;71068;47.662;-2.750;2023-07-30T06:25:23;19.00;77.40
81202;DHT22;71068;47.662;-2.750;2023-07-30T06:27:49;19.00;77.00
81202;DHT22;71068;47.662;-2.750;2023-07-30T06:30:16;19.10;77.20
81202;DHT22;71068;47.662;-2.750;2023-07-30T06:32:42;19.10;76.60
81202;DHT22;71068;47.662;-2.750;2023-07-30T06:35:09;19.20;76.90
81202;DHT22;71068;47.662;-2.750;2023-07-30T06:37:36;19.20;76.40
81202;DHT22;71068;47.662;-2.750;2023-07-30T06:40:04;19.30;76.20
81202;DHT22;71068;47.662;-2.750;2023-07-30T06:42:32;19.30;76.00
81202;DHT22;71068;47.662;-2.750;2023-07-30T06:44:59;19.30;75.60
81202;DHT22;71068;47.662;-2.750;2023-07-30T06:47:26;19.40;75.70
81202;DHT22;71068;47.662;-2.750;2023-07-30T06:49:51;19.50;75.10
81202;DHT22;71068;47.662;-2.750;2023-07-30T06:52:17;19.40;75.20
81202;DHT22;71068;47.662;-2.750;2023-07-30T06:54:45;19.40;75.20
81202;DHT22;71068;47.662;-2.750;2023-07-30T06:57:11;19.50;74.50
81202;DHT22;71068;47.662;-2.750;2023-07-30T06:59:37;19.50;74.00
81202;DHT22;71068;47.662;-2.750;2023-07-30T07:02:03;19.60;73.60
81202;DHT22;71068;47.662;-2.750;2023-07-30T07:04:32;19.50;73.80
81202;DHT22;71068;47.662;-2.750;2023-07-30T07:06:59;19.60;74.40
81202;DHT22;71068;47.662;-2.750;2023-07-30T07:09:29;19.70;73.40
81202;DHT22;71068;47.662;-2.750;2023-07-30T07:11:56;19.70;73.30
81202;DHT22;71068;47.662;-2.750;2023-07-30T07:14:23;19.60;73.00
81202;DHT22;71068;47.662;-2.750;2023-07-30T07:16:50;19.70;73.20
81202;DHT22;71068;47.662;-2.750;2023-07-30T07:19:17;19.70;73.10
81202;DHT22;71068;47.662;-2.750;2023-07-30T07:21:43;19.80;73.50
81202;DHT22;71068;47.662;-2.750;2023-07-30T07:24:09;19.70;74.00
81202;DHT22;71068;47.662;-2.750;2023-07-30T07:26:35;19.70;73.40
81202;DHT22;71068;47.662;-2.750;2023-07-30T07:29:00;19.60;73.60
81202;DHT22;71068;47.662;-2.750;2023-07-30T07:31:26;19.70;73.20
81202;DHT22;71068;47.662;-2.750;2023-07-30T07:33:53;19.70;72.80
81202;DHT22;71068;47.662;-2.750;2023-07-30T07:36:19;19.70;72.80
81202;DHT22;71068;47.662;-2.750;2023-07-30T07:38:47;19.70;72.60
81202;DHT22;71068;47.662;-2.750;2023-07-30T07:41:17;19.60;73.80
81202;DHT22;71068;47.662;-2.750;2023-07-30T07:43:47;19.70;73.60
81202;DHT22;71068;47.662;-2.750;2023-07-30T07:46:13;19.80;73.00
81202;DHT22;71068;47.662;-2.750;2023-07-30T07:48:41;20.00;72.80
81202;DHT22;71068;47.662;-2.750;2023-07-30T07:51:29;20.00;72.00
81202;DHT22;71068;47.662;-2.750;2023-07-30T07:54:04;20.00;72.20
81202;DHT22;71068;47.662;-2.750;2023-07-30T07:56:31;20.10;72.80
81202;DHT22;71068;47.662;-2.750;2023-07-30T07:58:58;20.20;71.60
81202;DHT22;71068;47.662;-2.750;2023-07-30T08:01:24;20.30;71.60
81202;DHT22;71068;47.662;-2.750;2023-07-30T08:03:51;20.40;70.60
81202;DHT22;71068;47.662;-2.750;2023-07-30T08:06:17;20.40;70.60
81202;DHT22;71068;47.662;-2.750;2023-07-30T08:08:43;20.50;69.90
81202;DHT22;71068;47.662;-2.750;2023-07-30T08:11:11;20.80;69.10
81202;DHT22;71068;47.662;-2.750;2023-07-30T08:13:37;20.90;68.70
81202;DHT22;71068;47.662;-2.750;2023-07-30T08:16:04;20.90;68.60
81202;DHT22;71068;47.662;-2.750;2023-07-30T08:18:31;21.00;68.00
81202;DHT22;71068;47.662;-2.750;2023-07-30T08:21:06;20.80;68.30
81202;DHT22;71068;47.662;-2.750;2023-07-30T08:23:32;20.90;68.00
81202;DHT22;71068;47.662;-2.750;2023-07-30T08:25:58;21.00;67.60
81202;DHT22;71068;47.662;-2.750;2023-07-30T08:28:25;20.90;67.90
81202;DHT22;71068;47.662;-2.750;2023-07-30T08:30:51;20.80;68.80
81202;DHT22;71068;47.662;-2.750;2023-07-30T08:33:17;21.10;67.00
81202;DHT22;71068;47.662;-2.750;2023-07-30T08:35:43;21.10;66.90
81202;DHT22;71068;47.662;-2.750;2023-07-30T08:38:09;21.20;66.60
81202;DHT22;71068;47.662;-2.750;2023-07-30T08:40:35;21.40;65.50
81202;DHT22;71068;47.662;-2.750;2023-07-30T08:43:02;21.50;64.80
81202;DHT22;71068;47.662;-2.750;2023-07-30T08:45:31;21.50;65.10
81202;DHT22;71068;47.662;-2.750;2023-07-30T08:48:00;21.50;63.80
81202;DHT22;71068;47.662;-2.750;2023-07-30T08:50:28;21.60;64.00
81202;DHT22;71068;47.662;-2.750;2023-07-30T08:52:55;21.60;63.80
81202;DHT22;71068;47.662;-2.750;2023-07-30T08:55:21;21.50;63.60
81202;DHT22;71068;47.662;-2.750;2023-07-30T08:57:51;21.70;63.50
81202;DHT22;71068;47.662;-2.750;2023-07-30T09:00:19;21.70;62.70
81202;DHT22;71068;47.662;-2.750;2023-07-30T09:02:53;21.80;63.30
81202;DHT22;71068;47.662;-2.750;2023-07-30T09:05:21;21.80;62.80
81202;DHT22;71068;47.662;-2.750;2023-07-30T09:07:49;22.00;62.60
81202;DHT22;71068;47.662;-2.750;2023-07-30T09:10:15;22.10;62.80
81202;DHT22;71068;47.662;-2.750;2023-07-30T09:12:41;22.20;61.80
81202;DHT22;71068;47.662;-2.750;2023-07-30T09:15:07;22.30;62.50
81202;DHT22;71068;47.662;-2.750;2023-07-30T09:17:35;22.30;60.50
81202;DHT22;71068;47.662;-2.750;2023-07-30T09:20:04;22.30;61.40
81202;DHT22;71068;47.662;-2.750;2023-07-30T09:22:32;22.40;61.60
81202;DHT22;71068;47.662;-2.750;2023-07-30T09:25:03;22.50;61.80
81202;DHT22;71068;47.662;-2.750;2023-07-30T09:27:31;22.40;61.90
81202;DHT22;71068;47.662;-2.750;2023-07-30T09:29:59;22.60;61.20
81202;DHT22;71068;47.662;-2.750;2023-07-30T09:32:32;22.70;60.80
81202;DHT22;71068;47.662;-2.750;2023-07-30T09:35:07;22.70;58.80
81202;DHT22;71068;47.662;-2.750;2023-07-30T09:37:40;22.70;59.20
81202;DHT22;71068;47.662;-2.750;2023-07-30T09:40:08;22.80;61.30
81202;DHT22;71068;47.662;-2.750;2023-07-30T09:42:45;22.70;60.00
81202;DHT22;71068;47.662;-2.750;2023-07-30T09:45:23;22.90;59.70
81202;DHT22;71068;47.662;-2.750;2023-07-30T09:47:57;22.60;60.40
81202;DHT22;71068;47.662;-2.750;2023-07-30T09:50:24;22.90;60.30
81202;DHT22;71068;47.662;-2.750;2023-07-30T09:52:54;22.80;60.40
81202;DHT22;71068;47.662;-2.750;2023-07-30T09:55:38;22.90;60.50
81202;DHT22;71068;47.662;-2.750;2023-07-30T09:58:08;22.90;61.20
81202;DHT22;71068;47.662;-2.750;2023-07-30T10:00:36;23.10;60.40
81202;DHT22;71068;47.662;-2.750;2023-07-30T10:03:04;23.10;60.30
81202;DHT22;71068;47.662;-2.750;2023-07-30T10:05:33;23.10;60.40
81202;DHT22;71068;47.662;-2.750;2023-07-30T10:08:14;23.00;59.80
81202;DHT22;71068;47.662;-2.750;2023-07-30T10:10:45;22.90;61.00
81202;DHT22;71068;47.662;-2.750;2023-07-30T10:13:12;23.00;61.30
81202;DHT22;71068;47.662;-2.750;2023-07-30T10:15:39;23.20;61.10
81202;DHT22;71068;47.662;-2.750;2023-07-30T10:18:05;23.50;60.70
81202;DHT22;71068;47.662;-2.750;2023-07-30T10:20:32;23.10;61.60
81202;DHT22;71068;47.662;-2.750;2023-07-30T10:22:59;23.50;59.40
81202;DHT22;71068;47.662;-2.750;2023-07-30T10:25:44;23.50;58.60
81202;DHT22;71068;47.662;-2.750;2023-07-30T10:28:34;23.50;58.30
81202;DHT22;71068;47.662;-2.750;2023-07-30T10:31:04;23.60;58.00
81202;DHT22;71068;47.662;-2.750;2023-07-30T10:33:50;23.50;58.30
81202;DHT22;71068;47.662;-2.750;2023-07-30T10:36:46;23.30;57.00
81202;DHT22;71068;47.662;-2.750;2023-07-30T10:39:14;22.90;58.40
81202;DHT22;71068;47.662;-2.750;2023-07-30T10:41:45;22.80;58.10
81202;DHT22;71068;47.662;-2.750;2023-07-30T10:44:25;22.80;58.50
81202;DHT22;71068;47.662;-2.750;2023-07-30T10:50:40;22.90;58.60
81202;DHT22;71068;47.662;-2.750;2023-07-30T10:53:19;23.00;58.10
81202;DHT22;71068;47.662;-2.750;2023-07-30T10:55:45;22.90;59.30
81202;DHT22;71068;47.662;-2.750;2023-07-30T10:58:11;22.70;58.80
81202;DHT22;71068;47.662;-2.750;2023-07-30T11:00:45;22.60;58.90
81202;DHT22;71068;47.662;-2.750;2023-07-30T11:03:10;22.40;59.00
81202;DHT22;71068;47.662;-2.750;2023-07-30T11:05:39;22.50;60.00
81202;DHT22;71068;47.662;-2.750;2023-07-30T11:08:05;22.60;61.10
81202;DHT22;71068;47.662;-2.750;2023-07-30T11:10:42;22.80;60.40
81202;DHT22;71068;47.662;-2.750;2023-07-30T11:13:09;22.90;60.50
81202;DHT22;71068;47.662;-2.750;2023-07-30T11:15:45;22.80;59.70
81202;DHT22;71068;47.662;-2.750;2023-07-30T11:18:14;23.00;58.90
81202;DHT22;71068;47.662;-2.750;2023-07-30T11:20:41;23.00;58.20
81202;DHT22;71068;47.662;-2.750;2023-07-30T11:23:26;23.10;59.30
81202;DHT22;71068;47.662;-2.750;2023-07-30T11:25:52;23.20;59.70
81202;DHT22;71068;47.662;-2.750;2023-07-30T11:31:13;23.50;58.60
81202;DHT22;71068;47.662;-2.750;2023-07-30T11:33:44;23.50;59.00
81202;DHT22;71068;47.662;-2.750;2023-07-30T11:36:22;23.00;59.40
81202;DHT22;71068;47.662;-2.750;2023-07-30T11:38:51;23.00;59.80
81202;DHT22;71068;47.662;-2.750;2023-07-30T11:41:19;22.90;61.20
81202;DHT22;71068;47.662;-2.750;2023-07-30T11:43:47;23.10;61.20
81202;DHT22;71068;47.662;-2.750;2023-07-30T11:46:17;23.10;60.90
81202;DHT22;71068;47.662;-2.750;2023-07-30T11:48:51;23.10;60.70
81202;DHT22;71068;47.662;-2.750;2023-07-30T11:51:28;23.10;60.80
81202;DHT22;71068;47.662;-2.750;2023-07-30T11:53:56;23.10;61.80
81202;DHT22;71068;47.662;-2.750;2023-07-30T11:56:31;23.40;61.30
81202;DHT22;71068;47.662;-2.750;2023-07-30T11:59:00;23.60;59.20
81202;DHT22;71068;47.662;-2.750;2023-07-30T12:01:30;23.50;60.10
81202;DHT22;71068;47.662;-2.750;2023-07-30T12:03:59;23.50;59.40
81202;DHT22;71068;47.662;-2.750;2023-07-30T12:06:39;23.20;60.40
81202;DHT22;71068;47.662;-2.750;2023-07-30T12:11:57;22.90;62.10
81202;DHT22;71068;47.662;-2.750;2023-07-30T12:14:29;23.60;60.90
81202;DHT22;71068;47.662;-2.750;2023-07-30T12:17:09;24.10;58.70
81202;DHT22;71068;47.662;-2.750;2023-07-30T12:19:35;24.40;58.10
81202;DHT22;71068;47.662;-2.750;2023-07-30T12:22:03;24.50;56.60
81202;DHT22;71068;47.662;-2.750;2023-07-30T12:24:29;24.50;56.30
81202;DHT22;71068;47.662;-2.750;2023-07-30T12:26:55;23.60;59.90
81202;DHT22;71068;47.662;-2.750;2023-07-30T12:29:23;24.00;58.40
81202;DHT22;71068;47.662;-2.750;2023-07-30T12:31:52;23.90;56.30
81202;DHT22;71068;47.662;-2.750;2023-07-30T12:34:19;23.90;57.10
81202;DHT22;71068;47.662;-2.750;2023-07-30T12:36:45;23.70;58.20
81202;DHT22;71068;47.662;-2.750;2023-07-30T12:39:13;23.60;58.10
81202;DHT22;71068;47.662;-2.750;2023-07-30T12:41:39;23.40;60.40
81202;DHT22;71068;47.662;-2.750;2023-07-30T12:44:05;23.30;61.20
81202;DHT22;71068;47.662;-2.750;2023-07-30T12:46:31;23.10;60.50
81202;DHT22;71068;47.662;-2.750;2023-07-30T12:48:58;22.60;61.40
81202;DHT22;71068;47.662;-2.750;2023-07-30T12:51:31;22.80;61.80
81202;DHT22;71068;47.662;-2.750;2023-07-30T12:53:59;22.80;62.60
81202;DHT22;71068;47.662;-2.750;2023-07-30T12:56:26;22.80;62.70
81202;DHT22;71068;47.662;-2.750;2023-07-30T12:58:54;22.90;61.60
81202;DHT22;71068;47.662;-2.750;2023-07-30T13:01:29;22.70;63.00
81202;DHT22;71068;47.662;-2.750;2023-07-30T13:03:56;22.80;63.00
81202;DHT22;71068;47.662;-2.750;2023-07-30T13:06:22;22.90;63.10
81202;DHT22;71068;47.662;-2.750;2023-07-30T13:08:50;23.10;63.30
81202;DHT22;71068;47.662;-2.750;2023-07-30T13:11:18;23.40;60.60
81202;DHT22;71068;47.662;-2.750;2023-07-30T13:13:48;23.50;59.70
81202;DHT22;71068;47.662;-2.750;2023-07-30T13:16:14;23.30;60.90
81202;DHT22;71068;47.662;-2.750;2023-07-30T13:18:40;23.40;60.80
81202;DHT22;71068;47.662;-2.750;2023-07-30T13:21:06;23.40;61.70
81202;DHT22;71068;47.662;-2.750;2023-07-30T13:23:35;23.40;61.20
81202;DHT22;71068;47.662;-2.750;2023-07-30T13:26:02;23.30;61.60
81202;DHT22;71068;47.662;-2.750;2023-07-30T13:28:29;23.40;62.30
81202;DHT22;71068;47.662;-2.750;2023-07-30T13:30:56;23.30;63.30
81202;DHT22;71068;47.662;-2.750;2023-07-30T13:33:26;23.40;62.80
81202;DHT22;71068;47.662;-2.750;2023-07-30T13:35:52;23.40;62.50
81202;DHT22;71068;47.662;-2.750;2023-07-30T13:38:23;23.40;62.30
81202;DHT22;71068;47.662;-2.750;2023-07-30T13:40:52;23.60;62.60
81202;DHT22;71068;47.662;-2.750;2023-07-30T13:43:28;23.60;62.10
81202;DHT22;71068;47.662;-2.750;2023-07-30T13:45:56;23.70;60.10
81202;DHT22;71068;47.662;-2.750;2023-07-30T13:48:25;23.90;60.40
81202;DHT22;71068;47.662;-2.750;2023-07-30T13:51:04;24.10;60.00
81202;DHT22;71068;47.662;-2.750;2023-07-30T13:53:30;24.50;58.50
81202;DHT22;71068;47.662;-2.750;2023-07-30T13:55:58;24.80;58.40
81202;DHT22;71068;47.662;-2.750;2023-07-30T13:58:24;24.90;57.50
81202;DHT22;71068;47.662;-2.750;2023-07-30T14:00:53;25.10;56.90
81202;DHT22;71068;47.662;-2.750;2023-07-30T14:03:39;25.10;55.60
81202;DHT22;71068;47.662;-2.750;2023-07-30T14:06:07;24.70;57.00
81202;DHT22;71068;47.662;-2.750;2023-07-30T14:08:33;24.50;57.00
81202;DHT22;71068;47.662;-2.750;2023-07-30T14:11:01;24.50;56.00
81202;DHT22;71068;47.662;-2.750;2023-07-30T14:13:27;24.70;56.20
81202;DHT22;71068;47.662;-2.750;2023-07-30T14:15:57;24.30;57.40
81202;DHT22;71068;47.662;-2.750;2023-07-30T14:18:27;24.90;56.20
81202;DHT22;71068;47.662;-2.750;2023-07-30T14:21:02;25.30;54.70
81202;DHT22;71068;47.662;-2.750;2023-07-30T14:23:28;25.50;54.30
81202;DHT22;71068;47.662;-2.750;2023-07-30T14:25:54;25.50;53.40
81202;DHT22;71068;47.662;-2.750;2023-07-30T14:28:22;25.70;52.90
81202;DHT22;71068;47.662;-2.750;2023-07-30T14:30:49;25.80;53.30
81202;DHT22;71068;47.662;-2.750;2023-07-30T14:33:18;25.80;52.20
81202;DHT22;71068;47.662;-2.750;2023-07-30T14:35:47;26.00;52.90
81202;DHT22;71068;47.662;-2.750;2023-07-30T14:38:13;26.00;51.90
81202;DHT22;71068;47.662;-2.750;2023-07-30T14:40:39;25.80;52.00
81202;DHT22;71068;47.662;-2.750;2023-07-30T14:43:06;25.90;52.00
81202;DHT22;71068;47.662;-2.750;2023-07-30T14:45:33;25.70;53.00
81202;DHT22;71068;47.662;-2.750;2023-07-30T14:47:59;26.10;52.70
81202;DHT22;71068;47.662;-2.750;2023-07-30T14:50:26;26.20;52.30
81202;DHT22;71068;47.662;-2.750;2023-07-30T14:52:59;26.30;50.80
81202;DHT22;71068;47.662;-2.750;2023-07-30T14:55:25;26.50;51.80
81202;DHT22;71068;47.662;-2.750;2023-07-30T14:57:51;26.60;51.60
81202;DHT22;71068;47.662;-2.750;2023-07-30T15:00:17;26.60;51.90
81202;DHT22;71068;47.662;-2.750;2023-07-30T15:02:43;26.60;52.10
81202;DHT22;71068;47.662;-2.750;2023-07-30T15:05:09;26.70;50.70
81202;DHT22;71068;47.662;-2.750;2023-07-30T15:07:35;26.60;50.60
81202;DHT22;71068;47.662;-2.750;2023-07-30T15:10:08;26.70;50.50
81202;DHT22;71068;47.662;-2.750;2023-07-30T15:12:35;26.50;51.70
81202;DHT22;71068;47.662;-2.750;2023-07-30T15:15:02;26.10;52.50
81202;DHT22;71068;47.662;-2.750;2023-07-30T15:17:31;26.50;50.80
81202;DHT22;71068;47.662;-2.750;2023-07-30T15:19:58;26.50;51.30
81202;DHT22;71068;47.662;-2.750;2023-07-30T15:22:25;26.70;50.10
81202;DHT22;71068;47.662;-2.750;2023-07-30T15:24:53;27.10;49.10
81202;DHT22;71068;47.662;-2.750;2023-07-30T15:27:19;27.10;48.60
81202;DHT22;71068;47.662;-2.750;2023-07-30T15:29:46;26.90;49.10
81202;DHT22;71068;47.662;-2.750;2023-07-30T15:32:13;26.80;48.90
81202;DHT22;71068;47.662;-2.750;2023-07-30T15:34:42;27.00;49.10